TimeCST,TemperatureF,Dew PointF,Humidity,Sea Level PressureIn,VisibilityMPH,Wind Direction,Wind SpeedMPH,Gust SpeedMPH,PrecipitationIn,Events,Conditions,WindDirDegrees,DateUTC
12:53 AM,17.1,12.0,81,30.36,10.0,NNW,8.1,-,N/A,,Overcast,330,2013-03-01 06:53:00
1:53 AM,15.8,10.4,79,30.31,10.0,NNW,8.1,-,N/A,,Overcast,340,2013-03-01 07:53:00
2:53 AM,14.0,9.0,80,30.38,10.0,NNW,4.6,-,N/A,,Overcast,330,2013-03-01 08:53:00
4:53 AM,10.0,5.0,80,30.39,10.0,Calm,Calm,-,N/A,,Clear,0,2013-03-01 10:53:00
5:53 AM,9.0,3.9,80,30.40,10.0,NW,4.6,-,N/A,,Clear,310,2013-03-01 11:53:00
6:53 AM,7.0,3.0,84,30.42,9.0,WNW,4.6,-,N/A,,Clear,300,2013-03-01 12:53:00
7:53 AM,8.1,3.9,83,30.43,8.0,NW,3.5,-,N/A,,Partly Cloudy,320,2013-03-01 13:53:00
8:53 AM,12.0,6.1,77,30.45,10.0,NW,4.6,-,N/A,,Overcast,320,2013-03-01 14:53:00
9:53 AM,15.1,8.1,74,30.46,10.0,NNW,3.5,-,N/A,,Mostly Cloudy,330,2013-03-01 15:53:00
10:53 AM,18.0,10.0,71,30.46,10.0,West,3.5,-,N/A,,Clear,270,2013-03-01 16:53:00
11:53 AM,21.9,12.0,66,30.46,10.0,Calm,Calm,-,N/A,,Clear,0,2013-03-01 17:53:00
12:53 PM,23.0,12.9,65,30.45,10.0,WNW,4.6,-,N/A,,Clear,300,2013-03-01 18:53:00
1:53 PM,24.1,14.0,65,30.44,10.0,WNW,3.5,-,N/A,,Clear,290,2013-03-01 19:53:00
2:53 PM,25.0,15.1,66,30.43,10.0,West,3.5,-,N/A,,Clear,280,2013-03-01 20:53:00
3:53 PM,24.1,14.0,65,30.43,10.0,West,4.6,-,N/A,,Clear,270,2013-03-01 21:53:00
4:53 PM,24.1,14.0,65,30.45,10.0,WNW,4.6,-,N/A,,Clear,290,2013-03-01 22:53:00
5:53 PM,21.0,14.0,74,30.45,10.0,NNW,3.5,-,N/A,,Clear,330,2013-03-01 23:53:00
6:53 PM,19.0,12.0,74,30.45,10.0,NNW,3.5,-,N/A,,Clear,340,2013-03-02 00:53:00
7:53 PM,15.8,10.4,79,30.38,10.0,Calm,Calm,-,N/A,,Clear,0,2013-03-02 01:53:00
8:53 PM,12.0,8.1,84,30.45,7.0,Calm,Calm,-,N/A,,Clear,0,2013-03-02 02:53:00
9:49 PM,10.4,5.0,79,30.37,1.8,Calm,Calm,-,N/A,,Haze,0,2013-03-02 03:49:00
9:50 PM,10.0,5.0,80,30.44,1.8,Calm,Calm,-,N/A,,Haze,0,2013-03-02 03:50:00
9:55 PM,10.4,6.8,85,30.37,7.0,Calm,Calm,-,N/A,,Clear,0,2013-03-02 03:55:00
10:53 PM,10.0,6.1,84,30.42,7.0,Calm,Calm,-,N/A,,Clear,0,2013-03-02 04:53:00
11:35 PM,8.6,3.2,79,30.35,2.5,West,5.8,-,N/A,,Haze,260,2013-03-02 05:35:00
11:38 PM,8.6,3.2,79,30.36,1.2,WSW,4.6,-,N/A,,Haze,250,2013-03-02 05:38:00
11:40 PM,8.6,3.2,79,30.35,0.8,WSW,3.5,-,N/A,,Mist,240,2013-03-02 05:40:00
11:53 PM,5.0,1.9,87,30.41,0.2,Calm,Calm,-,N/A,Fog,Light Freezing Fog,0,2013-03-02 05:53:00